Time;durP1;ratioP1;P1;durP2;ratioP2;P2;SDS_P1;SDS_P2;PMS_P1;PMS_P2;Temp;Humidity;BMP_temperature;BMP_pressure;BME280_temperature;BME280_humidity;BME280_pressure;Samples;Min_cycle;Max_cycle;Signal;HPM_P1;HPM_P2
2022/07/04 00:00:05;;;;;;;;;;;;;;;28.75;27.36;101123.41;4429182;32;19949;-67
2022/07/04 00:02:31;;;;;;;;;;;;;;;28.59;27.62;101123.75;4428035;32;20376;-67
2022/07/04 00:04:56;;;;;;;;;;;;;;;28.94;27.43;101117.50;4426296;32;19977;-67
2022/07/04 00:07:22;;;;;;;;;;;;;;;29.01;27.44;101114.72;4427488;32;19961;-67
2022/07/04 00:09:48;;;;;;;;;;;;;;;29.06;27.31;101115.97;4428557;32;19961;-67
2022/07/04 00:12:14;;;;;;;;;;;;;;;28.87;27.60;101116.06;4430258;32;20012;-67
2022/07/04 00:14:39;;;;;;;;;;;;;;;28.88;27.63;101113.94;4429040;32;19996;-68
2022/07/04 00:17:05;;;;;;;;;;;;;;;29.22;27.31;101114.03;4426245;32;20060;-68
2022/07/04 00:19:31;;;;;;;;;;;;;;;29.10;27.51;101112.72;4426107;32;21159;-68
2022/07/04 00:21:56;;;;;;;;;;;;;;;28.73;28.11;101114.50;4427637;32;19996;-68
2022/07/04 00:24:24;;;;;;;;;;;;;;;28.55;28.19;101106.69;4431348;32;20388;-68
2022/07/04 00:26:50;;;;;;;;;;;;;;;29.01;27.85;101102.34;4428105;32;20015;-67
2022/07/04 00:29:15;;;;;;;;;;;;;;;28.62;28.06;101097.34;4428825;32;19991;-67
2022/07/04 00:31:43;;;;;;;;;;;;;;;28.99;27.69;101087.63;4428768;32;20457;-67
2022/07/04 00:34:08;;;;;;;;;;;;;;;29.40;27.20;101081.22;4426553;32;19968;-67
2022/07/04 00:36:34;;;;;;;;;;;;;;;29.75;26.73;101083.56;4429355;32;19997;-67
2022/07/04 00:39:02;;;;;;;;;;;;;;;29.84;26.50;101072.25;4427123;32;20289;-67
2022/07/04 00:41:27;;;;;;;;;;;;;;;29.64;26.74;101064.34;4429151;32;20008;-67
2022/07/04 00:44:09;;;;;;;;;;;;;;;29.68;26.74;101067.66;4428478;32;19976;-67
2022/07/04 00:46:35;;;;;;;;;;;;;;;29.80;26.61;101060.22;4425877;32;19992;-67
2022/07/04 00:49:03;;;;;;;;;;;;;;;29.87;26.32;101044.22;4428992;32;20292;-67
2022/07/04 00:51:28;;;;;;;;;;;;;;;30.00;26.03;101047.06;4429095;32;20022;-67
2022/07/04 00:53:54;;;;;;;;;;;;;;;29.80;26.44;101054.44;4427103;32;20383;-67
2022/07/04 00:56:20;;;;;;;;;;;;;;;29.05;27.41;101044.09;4429295;32;20351;-67
2022/07/04 00:58:46;;;;;;;;;;;;;;;29.62;26.60;101035.09;4429890;32;19993;-67
2022/07/04 01:01:12;;;;;;;;;;;;;;;29.93;26.24;101015.84;4428554;32;20047;-67
2022/07/04 01:03:37;;;;;;;;;;;;;;;29.34;26.82;101016.78;4428114;32;20046;-67
2022/07/04 01:06:04;;;;;;;;;;;;;;;29.52;26.46;101007.13;4426530;32;19964;-67
2022/07/04 01:08:29;;;;;;;;;;;;;;;29.09;27.08;101012.63;4426327;32;19954;-67
2022/07/04 01:10:54;;;;;;;;;;;;;;;28.99;27.24;101001.47;4428671;32;20041;-67
2022/07/04 01:13:21;;;;;;;;;;;;;;;29.10;26.90;101014.97;4426642;32;19992;-67
2022/07/04 01:15:47;;;;;;;;;;;;;;;29.50;26.41;101009.78;4428052;32;20020;-67
2022/07/04 01:18:12;;;;;;;;;;;;;;;29.06;27.17;101005.84;4425419;32;19991;-67
2022/07/04 01:20:38;;;;;;;;;;;;;;;29.58;26.40;100999.06;4429677;32;20345;-67
2022/07/04 01:23:04;;;;;;;;;;;;;;;29.49;26.33;100999.53;4428359;32;20023;-67
2022/07/04 01:25:30;;;;;;;;;;;;;;;28.92;27.09;101002.16;4426995;32;20036;-67
2022/07/04 01:27:55;;;;;;;;;;;;;;;28.47;27.70;101010.25;4427328;32;19957;-67
2022/07/04 01:30:21;;;;;;;;;;;;;;;29.43;26.53;101019.19;4423329;32;20113;-67
2022/07/04 01:32:47;;;;;;;;;;;;;;;29.05;26.87;101024.56;4429227;32;19984;-67
2022/07/04 01:35:12;;;;;;;;;;;;;;;29.25;26.74;101020.16;4428184;32;19949;-67
2022/07/04 01:37:40;;;;;;;;;;;;;;;29.41;26.56;101025.56;4426055;32;19993;-67
2022/07/04 01:40:06;;;;;;;;;;;;;;;29.78;26.02;101036.78;4425927;32;19965;-67
2022/07/04 01:42:31;;;;;;;;;;;;;;;29.82;25.79;101039.34;4427988;32;19993;-67
2022/07/04 01:44:57;;;;;;;;;;;;;;;29.92;25.66;101037.50;4428394;32;20431;-67
2022/07/04 01:47:22;;;;;;;;;;;;;;;29.90;25.89;101040.19;4422897;32;19992;-67
2022/07/04 01:49:48;;;;;;;;;;;;;;;29.60;26.14;101049.34;4427003;32;21013;-67
2022/07/04 01:52:15;;;;;;;;;;;;;;;29.68;26.04;101047.34;4429005;32;19980;-67
2022/07/04 01:54:41;;;;;;;;;;;;;;;29.42;26.43;101061.91;4429444;32;19957;-67
2022/07/04 01:57:07;;;;;;;;;;;;;;;30.02;25.77;101055.97;4424485;32;20004;-67
2022/07/04 02:02:18;;;;;;;;;;;;;;;29.94;25.89;101044.28;4424818;32;20008;-67
2022/07/04 02:04:44;;;;;;;;;;;;;;;30.04;25.74;101035.88;4427042;32;20042;-67
2022/07/04 02:07:09;;;;;;;;;;;;;;;29.83;25.93;101029.28;4427204;32;20455;-67
2022/07/04 02:09:35;;;;;;;;;;;;;;;30.02;25.84;101029.84;4424882;32;20097;-67
2022/07/04 02:14:47;;;;;;;;;;;;;;;29.53;26.55;101026.84;4429124;32;20935;-67
2022/07/04 02:17:13;;;;;;;;;;;;;;;29.73;26.32;101025.34;4427781;32;19967;-67
2022/07/04 02:19:38;;;;;;;;;;;;;;;29.81;26.03;101032.75;4427495;32;20326;-67
2022/07/04 02:22:04;;;;;;;;;;;;;;;30.15;25.84;101026.84;4425760;32;19992;-67
2022/07/04 02:24:30;;;;;;;;;;;;;;;30.23;25.59;101019.00;4425679;32;19997;-67
2022/07/04 02:26:55;;;;;;;;;;;;;;;29.76;26.15;101009.69;4426020;32;20907;-67
2022/07/04 02:29:21;;;;;;;;;;;;;;;29.96;26.07;101006.00;4426890;32;20055;-67
2022/07/04 02:31:46;;;;;;;;;;;;;;;29.89;26.20;100995.09;4427228;32;20007;-67
2022/07/04 02:34:12;;;;;;;;;;;;;;;29.58;26.69;100999.06;4425847;32;20385;-67
2022/07/04 02:36:38;;;;;;;;;;;;;;;29.90;26.28;100997.44;4428019;32;20047;-67
2022/07/04 02:39:05;;;;;;;;;;;;;;;29.60;26.83;100987.69;4425555;32;20394;-67
2022/07/04 02:41:30;;;;;;;;;;;;;;;29.13;27.56;100984.84;4426398;32;19957;-67
2022/07/04 02:43:56;;;;;;;;;;;;;;;29.02;27.63;100985.87;4425857;32;20455;-67
2022/07/04 02:46:22;;;;;;;;;;;;;;;28.92;27.81;100990.59;4428010;32;19988;-67
2022/07/04 02:48:48;;;;;;;;;;;;;;;29.21;27.63;100991.53;4428343;32;19965;-67
2022/07/04 02:51:14;;;;;;;;;;;;;;;28.70;28.24;100988.19;4426889;32;20013;-67
2022/07/04 02:53:39;;;;;;;;;;;;;;;28.55;28.54;100996.66;4428063;32;19992;-67
2022/07/04 02:56:04;;;;;;;;;;;;;;;29.22;27.62;100992.28;4429675;32;19965;-67
2022/07/04 02:58:32;;;;;;;;;;;;;;;29.19;27.54;100987.62;4426373;32;20031;-67
2022/07/04 03:00:58;;;;;;;;;;;;;;;29.29;27.50;100982.91;4423369;32;19996;-67
2022/07/04 03:03:24;;;;;;;;;;;;;;;29.25;27.60;100985.38;4428634;32;20020;-67
2022/07/04 03:05:50;;;;;;;;;;;;;;;29.84;26.83;100987.31;4429638;32;20071;-67
2022/07/04 03:08:16;;;;;;;;;;;;;;;29.80;26.96;100984.78;4429615;32;20009;-67
2022/07/04 03:10:41;;;;;;;;;;;;;;;30.08;26.60;100986.94;4430418;32;20534;-67
2022/07/04 03:13:07;;;;;;;;;;;;;;;30.09;26.53;100992.16;4429547;32;20012;-67
2022/07/04 03:15:32;;;;;;;;;;;;;;;29.84;26.90;100998.91;4431420;32;19953;-67
2022/07/04 03:17:59;;;;;;;;;;;;;;;30.08;26.57;100989.84;4428123;32;20008;-67
2022/07/04 03:20:26;;;;;;;;;;;;;;;29.90;26.77;100982.94;4429789;32;19960;-67
2022/07/04 03:22:54;;;;;;;;;;;;;;;29.55;27.16;100977.78;4428892;32;19989;-67
2022/07/04 03:25:20;;;;;;;;;;;;;;;30.05;26.67;100985.16;4431402;32;20461;-67
2022/07/04 03:27:45;;;;;;;;;;;;;;;29.78;26.88;100987.47;4430107;32;19996;-67
2022/07/04 03:30:11;;;;;;;;;;;;;;;29.59;27.12;100991.91;4430507;32;19998;-67
2022/07/04 03:32:36;;;;;;;;;;;;;;;29.92;26.79;100991.84;4427579;32;19997;-67
2022/07/04 03:35:02;;;;;;;;;;;;;;;29.87;26.90;100986.19;4429952;32;20816;-67
2022/07/04 03:37:28;;;;;;;;;;;;;;;29.70;27.16;100988.75;4428783;32;20009;-67
2022/07/04 03:39:53;;;;;;;;;;;;;;;29.93;26.87;100986.81;4430752;32;20028;-67
2022/07/04 03:42:21;;;;;;;;;;;;;;;29.77;27.17;100991.72;4430854;32;20254;-67
2022/07/04 03:44:47;;;;;;;;;;;;;;;29.66;27.25;100985.44;4429032;32;19957;-67
2022/07/04 03:47:12;;;;;;;;;;;;;;;29.56;27.30;100999.63;4429965;32;19957;-67
2022/07/04 03:49:37;;;;;;;;;;;;;;;29.60;27.33;100994.22;4428930;32;20303;-67
2022/07/04 03:52:03;;;;;;;;;;;;;;;29.31;27.81;100986.81;4430342;32;19972;-67
2022/07/04 03:54:29;;;;;;;;;;;;;;;29.14;27.98;100991.44;4430994;32;20017;-67
2022/07/04 03:56:54;;;;;;;;;;;;;;;29.44;27.75;100991.75;4430877;32;20013;-67
2022/07/04 03:59:20;;;;;;;;;;;;;;;29.31;27.96;100989.69;4428332;32;19992;-67
2022/07/04 04:01:46;;;;;;;;;;;;;;;29.47;27.80;100988.50;4428401;32;20008;-67
2022/07/04 04:06:56;;;;;;;;;;;;;;;29.44;27.75;100994.66;4428973;32;20004;-67
2022/07/04 04:09:24;;;;;;;;;;;;;;;29.44;27.63;100994.66;4429412;32;20387;-67
2022/07/04 04:11:50;;;;;;;;;;;;;;;29.22;28.18;101004.69;4426145;32;20437;-67
2022/07/04 04:14:15;;;;;;;;;;;;;;;28.99;28.64;101004.38;4428359;32;19997;-67
2022/07/04 04:16:42;;;;;;;;;;;;;;;29.19;28.15;101002.13;4428191;32;19999;-67
2022/07/04 04:19:08;;;;;;;;;;;;;;;28.73;29.17;100998.66;4427862;32;20111;-67
2022/07/04 04:21:34;;;;;;;;;;;;;;;28.69;29.26;100998.19;4429157;32;20029;-67
2022/07/04 04:23:59;;;;;;;;;;;;;;;28.89;29.08;100991.69;4429353;32;20008;-67
2022/07/04 04:26:25;;;;;;;;;;;;;;;28.79;28.99;101002.19;4430354;32;19995;-67
2022/07/04 04:28:51;;;;;;;;;;;;;;;28.50;29.59;101003.34;4428260;32;20844;-67
2022/07/04 04:31:17;;;;;;;;;;;;;;;28.85;29.26;100997.06;4427018;32;19996;-67
2022/07/04 04:33:43;;;;;;;;;;;;;;;29.20;28.81;101001.56;4428697;32;19965;-67
2022/07/04 04:36:08;;;;;;;;;;;;;;;28.86;29.36;100995.72;4429204;32;19967;-67
2022/07/04 04:38:34;;;;;;;;;;;;;;;28.83;29.28;101001.84;4427213;32;21364;-67
2022/07/04 04:41:00;;;;;;;;;;;;;;;28.95;29.12;101001.06;4431509;32;19996;-66
2022/07/04 04:43:25;;;;;;;;;;;;;;;28.72;29.52;100993.41;4427581;32;19964;-67
2022/07/04 04:45:51;;;;;;;;;;;;;;;28.98;29.16;100979.66;4427575;32;21021;-67
2022/07/04 04:48:16;;;;;;;;;;;;;;;29.16;28.85;100983.72;4427743;32;20009;-67
2022/07/04 04:50:42;;;;;;;;;;;;;;;29.50;28.46;100986.59;4428809;32;20000;-67
2022/07/04 04:53:07;;;;;;;;;;;;;;;29.40;28.52;100973.94;4428132;32;19983;-67
2022/07/04 04:55:33;;;;;;;;;;;;;;;29.12;28.85;100963.03;4428772;32;20488;-67
2022/07/04 04:57:58;;;;;;;;;;;;;;;29.16;28.92;100966.34;4429173;32;20044;-67
2022/07/04 05:00:24;;;;;;;;;;;;;;;28.88;29.32;100974.88;4425096;32;19957;-67
2022/07/04 05:02:49;;;;;;;;;;;;;;;29.35;28.73;100983.53;4426921;32;20474;-67
2022/07/04 05:05:15;;;;;;;;;;;;;;;29.29;28.67;100991.62;4424933;32;20304;-67
2022/07/04 05:07:41;;;;;;;;;;;;;;;29.03;29.02;100998.25;4428879;32;19996;-67
2022/07/04 05:10:06;;;;;;;;;;;;;;;29.57;28.30;101001.16;4426830;32;20049;-67
2022/07/04 05:12:32;;;;;;;;;;;;;;;28.53;29.59;101002.22;4429143;32;19984;-67
2022/07/04 05:14:57;;;;;;;;;;;;;;;28.95;29.32;101006.06;4426014;32;19953;-67
2022/07/04 05:17:24;;;;;;;;;;;;;;;28.14;30.32;100999.31;4426569;32;20055;-67
2022/07/04 05:19:49;;;;;;;;;;;;;;;28.65;29.78;101006.44;4427293;32;19968;-67
2022/07/04 05:22:15;;;;;;;;;;;;;;;28.81;29.56;101008.19;4427363;32;19954;-67
2022/07/04 05:24:41;;;;;;;;;;;;;;;28.44;30.03;101011.31;4427655;32;20046;-67
2022/07/04 05:27:07;;;;;;;;;;;;;;;29.07;29.39;100992.13;4425880;32;19985;-67
2022/07/04 05:29:32;;;;;;;;;;;;;;;28.70;29.95;100988.19;4428037;32;20004;-67
2022/07/04 05:31:58;;;;;;;;;;;;;;;28.86;29.58;100989.94;4427361;32;19984;-67
2022/07/04 05:34:23;;;;;;;;;;;;;;;28.49;30.13;100989.41;4427762;32;20024;-67
2022/07/04 05:36:49;;;;;;;;;;;;;;;28.67;29.77;100989.28;4427163;32;19963;-67
2022/07/04 05:39:14;;;;;;;;;;;;;;;28.87;29.52;100974.09;4426780;32;19992;-67
2022/07/04 05:41:40;;;;;;;;;;;;;;;28.78;29.64;100968.75;4428089;32;20429;-67
2022/07/04 05:44:06;;;;;;;;;;;;;;;28.49;30.00;100974.94;4426810;32;19965;-67
2022/07/04 05:46:31;;;;;;;;;;;;;;;29.12;29.20;100976.72;4428393;32;20334;-67
2022/07/04 05:48:57;;;;;;;;;;;;;;;28.71;29.73;100977.34;4425582;32;20002;-67
2022/07/04 05:51:23;;;;;;;;;;;;;;;28.31;29.96;100970.81;4428920;32;19965;-67
2022/07/04 05:53:48;;;;;;;;;;;;;;;28.83;29.16;100975.78;4429808;32;20000;-67
2022/07/04 05:56:13;;;;;;;;;;;;;;;28.82;28.92;100980.81;4427953;32;19973;-67
2022/07/04 05:58:40;;;;;;;;;;;;;;;29.01;28.68;100972.72;4427972;32;20307;-67
2022/07/04 06:01:06;;;;;;;;;;;;;;;28.64;29.26;100978.81;4424941;32;20385;-67
2022/07/04 06:03:31;;;;;;;;;;;;;;;27.67;30.56;100989.59;4428093;32;19989;-67
2022/07/04 06:05:57;;;;;;;;;;;;;;;28.66;29.08;100987.72;4427676;32;20191;-67
2022/07/04 06:08:23;;;;;;;;;;;;;;;28.10;30.18;100986.50;4426329;32;20032;-67
2022/07/04 06:10:49;;;;;;;;;;;;;;;28.26;29.99;100989.06;4429579;32;20005;-67
2022/07/04 06:13:16;;;;;;;;;;;;;;;28.99;29.05;100981.19;4424642;32;20016;-67
2022/07/04 06:15:42;;;;;;;;;;;;;;;28.71;29.50;100986.84;4427964;32;20095;-67
2022/07/04 06:18:07;;;;;;;;;;;;;;;28.90;29.29;100992.50;4428683;32;20443;-67
2022/07/04 06:20:32;;;;;;;;;;;;;;;28.65;29.60;100989.06;4426686;32;19981;-67
2022/07/04 06:22:58;;;;;;;;;;;;;;;29.26;28.93;100993.50;4425663;32;19988;-67
2022/07/04 06:25:23;;;;;;;;;;;;;;;29.22;28.80;100995.19;4423432;32;20055;-67
2022/07/04 06:27:51;;;;;;;;;;;;;;;28.15;29.99;100985.59;4416389;32;19989;-68
2022/07/04 06:30:17;;;;;;;;;;;;;;;28.06;30.26;100986.03;4418174;32;19961;-68
2022/07/04 06:32:43;;;;;;;;;;;;;;;28.25;30.22;100970.13;4418149;32;20346;-68
2022/07/04 06:37:55;;;;;;;;;;;;;;;29.03;29.04;100978.72;4424461;32;20054;-67
2022/07/04 06:40:20;;;;;;;;;;;;;;;28.82;29.19;100969.22;4424863;32;19958;-67
2022/07/04 06:42:46;;;;;;;;;;;;;;;29.35;28.41;100969.03;4414406;32;20030;-67
2022/07/04 06:45:11;;;;;;;;;;;;;;;28.59;29.21;100970.28;4404673;32;20036;-67
2022/07/04 06:47:37;;;;;;;;;;;;;;;28.65;29.00;100985.38;4408633;32;20058;-67
2022/07/04 06:50:02;;;;;;;;;;;;;;;29.34;28.18;100982.00;4409841;32;20044;-67
2022/07/04 06:52:28;;;;;;;;;;;;;;;28.44;29.34;100988.16;4416368;32;20352;-67
2022/07/04 06:54:53;;;;;;;;;;;;;;;27.91;29.97;100982.91;4417234;32;20533;-67
2022/07/04 06:57:19;;;;;;;;;;;;;;;29.27;28.15;100971.09;4412279;32;20050;-67
2022/07/04 06:59:44;;;;;;;;;;;;;;;29.51;27.75;100974.41;4410069;32;20005;-67
2022/07/04 07:02:09;;;;;;;;;;;;;;;29.30;28.01;100978.66;4411258;32;20513;-67
2022/07/04 07:04:35;;;;;;;;;;;;;;;29.63;27.40;100972.06;4407953;32;20342;-67
2022/07/04 07:07:01;;;;;;;;;;;;;;;29.95;26.57;100978.31;4413745;32;20385;-67
2022/07/04 07:09:26;;;;;;;;;;;;;;;29.58;27.02;100991.12;4411792;32;20553;-67
2022/07/04 07:11:52;;;;;;;;;;;;;;;29.37;26.90;100995.34;4414150;32;20012;-67
2022/07/04 07:14:20;;;;;;;;;;;;;;;29.20;27.01;100992.84;4410030;32;20660;-67
2022/07/04 07:16:46;;;;;;;;;;;;;;;29.69;26.53;101005.38;4415386;32;21091;-67
2022/07/04 07:19:11;;;;;;;;;;;;;;;29.36;26.57;101003.28;4409423;32;20339;-67
2022/07/04 07:21:37;;;;;;;;;;;;;;;29.81;26.06;101002.97;4412143;32;20099;-68
2022/07/04 07:24:03;;;;;;;;;;;;;;;30.24;25.53;101021.34;4413113;32;20547;-68
2022/07/04 07:26:29;;;;;;;;;;;;;;;29.58;26.05;101028.06;4408338;32;20640;-67
2022/07/04 07:28:55;;;;;;;;;;;;;;;30.39;25.30;101024.34;4409717;32;20918;-68
2022/07/04 07:31:21;;;;;;;;;;;;;;;30.29;25.45;101037.84;4411629;32;19997;-68
2022/07/04 07:33:47;;;;;;;;;;;;;;;30.11;25.69;101032.25;4413924;32;19997;-68
2022/07/04 07:36:12;;;;;;;;;;;;;;;30.63;25.11;101037.66;4413331;32;20074;-68
2022/07/04 07:38:38;;;;;;;;;;;;;;;30.11;25.68;101041.75;4408637;32;20498;-67
2022/07/04 07:41:07;;;;;;;;;;;;;;;30.61;25.04;101046.19;4409720;32;20421;-68
2022/07/04 07:43:33;;;;;;;;;;;;;;;30.98;24.50;101044.88;4410623;32;20068;-68
2022/07/04 07:45:59;;;;;;;;;;;;;;;30.81;24.53;101057.00;4415463;32;19996;-68
2022/07/04 07:48:24;;;;;;;;;;;;;;;31.24;24.44;101050.37;4412743;32;20477;-68
2022/07/04 07:50:50;;;;;;;;;;;;;;;30.76;24.83;101043.37;4411098;32;19961;-68
2022/07/04 07:53:16;;;;;;;;;;;;;;;29.85;25.99;101041.88;4415372;32;20060;-70
2022/07/04 07:55:41;;;;;;;;;;;;;;;30.96;24.84;101036.72;4415380;32;20289;-69
2022/07/04 07:58:08;;;;;;;;;;;;;;;31.04;24.67;101048.38;4411520;32;20109;-69
2022/07/04 08:00:33;;;;;;;;;;;;;;;31.18;24.59;101043.97;4416774;32;20324;-68
2022/07/04 08:05:44;;;;;;;;;;;;;;;30.02;25.88;101053.84;4412673;32;20615;-68
2022/07/04 08:08:10;;;;;;;;;;;;;;;30.67;24.89;101058.41;4414536;32;20010;-68
2022/07/04 08:10:37;;;;;;;;;;;;;;;30.89;24.88;101059.94;4412293;32;20016;-68
2022/07/04 08:13:03;;;;;;;;;;;;;;;31.33;24.30;101071.00;4407398;32;20016;-68
2022/07/04 08:15:29;;;;;;;;;;;;;;;31.23;24.26;101064.16;4408681;32;20091;-68
2022/07/04 08:17:54;;;;;;;;;;;;;;;31.64;23.60;101061.00;4409184;32;20384;-68
2022/07/04 08:20:24;;;;;;;;;;;;;;;30.98;24.53;101057.25;4412411;32;20001;-68
2022/07/04 08:22:49;;;;;;;;;;;;;;;32.28;23.14;101049.81;4401529;32;21144;-68
2022/07/04 08:25:16;;;;;;;;;;;;;;;32.82;22.53;101039.63;4408214;32;20040;-68
2022/07/04 08:27:42;;;;;;;;;;;;;;;32.56;22.71;101046.72;4405670;32;20181;-68
2022/07/04 08:30:08;;;;;;;;;;;;;;;32.39;22.56;101034.88;4405680;32;20435;-70
2022/07/04 08:32:33;;;;;;;;;;;;;;;32.36;22.57;101044.78;4406169;32;20143;-69
2022/07/04 08:34:59;;;;;;;;;;;;;;;32.94;21.77;101048.78;4406917;32;20312;-70
2022/07/04 08:37:24;;;;;;;;;;;;;;;33.84;21.19;101051.22;4413278;32;20058;-70
2022/07/04 08:39:50;;;;;;;;;;;;;;;33.95;20.59;101054.47;4410210;32;20008;-69
2022/07/04 08:42:17;;;;;;;;;;;;;;;33.14;21.51;101056.44;4405138;32;20458;-70
2022/07/04 08:44:46;;;;;;;;;;;;;;;33.03;21.67;101062.72;4406799;32;20029;-69
2022/07/04 08:47:15;;;;;;;;;;;;;;;33.20;21.18;101075.28;4413286;32;20023;-68
2022/07/04 08:49:44;;;;;;;;;;;;;;;32.35;22.22;101071.59;4412006;32;20051;-70
2022/07/04 08:52:10;;;;;;;;;;;;;;;31.76;22.74;101070.94;4411167;32;20090;-69
2022/07/04 09:00:07;;;;;;;;;;;;;;;32.38;22.25;101074.13;4411837;32;20001;-68
2022/07/04 09:02:33;;;;;;;;;;;;;;;32.15;22.54;101069.62;4404810;32;20008;-68
2022/07/04 09:05:01;;;;;;;;;;;;;;;32.77;21.72;101066.88;4410103;32;19997;-69
2022/07/04 09:07:28;;;;;;;;;;;;;;;32.52;22.18;101074.69;4404652;32;20011;-68
2022/07/04 09:09:54;;;;;;;;;;;;;;;33.15;21.43;101075.50;4408500;32;19957;-68
2022/07/04 09:12:19;;;;;;;;;;;;;;;33.29;21.32;101082.66;4411174;32;20024;-68
2022/07/04 09:14:45;;;;;;;;;;;;;;;33.29;21.09;101083.44;4407520;32;20004;-69
2022/07/04 09:17:12;;;;;;;;;;;;;;;32.42;21.94;101085.38;4407360;32;20348;-69
2022/07/04 09:19:37;;;;;;;;;;;;;;;32.78;21.79;101082.97;4410774;32;20011;-68
2022/07/04 09:22:09;;;;;;;;;;;;;;;32.71;21.79;101086.69;4411396;32;20124;-68
2022/07/04 09:24:52;;;;;;;;;;;;;;;32.98;21.74;101084.13;4411781;32;20080;-68
2022/07/04 09:27:34;;;;;;;;;;;;;;;33.05;21.50;101086.22;4410705;32;20018;-69
2022/07/04 09:30:01;;;;;;;;;;;;;;;31.42;22.60;101079.19;4408194;32;20227;-68
2022/07/04 09:32:37;;;;;;;;;;;;;;;32.85;21.26;101087.25;4412859;32;19969;-68
2022/07/04 09:35:03;;;;;;;;;;;;;;;32.63;20.61;101080.87;4414526;32;20016;-69
2022/07/04 09:37:33;;;;;;;;;;;;;;;33.55;19.62;101090.87;4405075;32;20648;-69
2022/07/04 09:39:59;;;;;;;;;;;;;;;32.70;20.42;101093.12;4409394;32;20494;-68
2022/07/04 09:42:24;;;;;;;;;;;;;;;32.09;21.05;101095.25;4406823;32;20174;-69
2022/07/04 09:44:50;;;;;;;;;;;;;;;32.29;20.78;101080.50;4411339;32;19976;-69
2022/07/04 09:47:22;;;;;;;;;;;;;;;32.35;20.19;101089.06;4404548;32;20009;-69
2022/07/04 09:55:27;;;;;;;;;;;;;;;32.46;20.48;101092.34;3939495;32;15727604;-69
2022/07/04 09:57:53;;;;;;;;;;;;;;;32.43;20.63;101101.50;4414709;32;20034;-69
2022/07/04 10:00:27;;;;;;;;;;;;;;;32.17;21.02;101088.06;4417976;32;19985;-69
2022/07/04 10:02:54;;;;;;;;;;;;;;;32.26;21.00;101104.97;4418837;32;20019;-69
2022/07/04 10:05:21;;;;;;;;;;;;;;;31.05;22.28;101091.41;4413713;32;19962;-69
2022/07/04 10:07:47;;;;;;;;;;;;;;;30.60;23.02;101091.09;4400613;32;19993;-69
2022/07/04 10:10:22;;;;;;;;;;;;;;;30.92;22.83;101105.31;4417121;32;19971;-69
2022/07/04 10:12:48;;;;;;;;;;;;;;;30.11;23.89;101104.81;4412847;32;20000;-69
2022/07/04 10:15:14;;;;;;;;;;;;;;;30.96;23.03;101097.75;4408731;32;19981;-69
2022/07/04 10:17:40;;;;;;;;;;;;;;;30.73;23.42;101099.72;4411796;32;20037;-69
2022/07/04 10:20:06;;;;;;;;;;;;;;;30.96;23.35;101103.59;4413329;32;20052;-69
2022/07/04 10:22:31;;;;;;;;;;;;;;;32.04;21.98;101114.47;4417094;32;20008;-69
2022/07/04 10:24:57;;;;;;;;;;;;;;;32.97;21.07;101109.59;4408956;32;20279;-68
2022/07/04 10:27:22;;;;;;;;;;;;;;;32.35;21.19;101118.97;4413474;32;20262;-69
2022/07/04 10:29:48;;;;;;;;;;;;;;;32.95;20.81;101108.63;4417076;32;20008;-67
2022/07/04 10:32:14;;;;;;;;;;;;;;;33.42;20.16;101120.34;4414227;32;20003;-68
2022/07/04 10:34:40;;;;;;;;;;;;;;;33.72;19.74;101109.31;4411427;32;20008;-68
2022/07/04 10:37:06;;;;;;;;;;;;;;;32.80;20.37;101118.16;4412334;32;20102;-68
2022/07/04 10:39:32;;;;;;;;;;;;;;;31.85;21.54;101108.25;4414644;32;20335;-68
2022/07/04 10:42:01;;;;;;;;;;;;;;;31.13;22.49;101100.94;4411881;32;19965;-68
2022/07/04 10:44:34;;;;;;;;;;;;;;;31.45;22.15;101106.34;4413923;32;19962;-68
2022/07/04 10:47:00;;;;;;;;;;;;;;;31.52;22.30;101112.19;4415566;32;19997;-68
2022/07/04 10:49:26;;;;;;;;;;;;;;;31.97;22.05;101106.47;4411541;32;19999;-68
2022/07/04 10:51:54;;;;;;;;;;;;;;;32.15;22.02;101114.06;4413808;32;20068;-68
2022/07/04 10:56:56;;;;;;;;;;;;;;;32.76;21.52;101100.28;3939511;32;15723556;-68
2022/07/04 10:59:25;;;;;;;;;;;;;;;32.76;21.52;101100.28;4423635;32;19992;-67
2022/07/04 11:04:47;;;;;;;;;;;;;;;34.22;19.65;101093.38;3936954;32;15721481;-69
2022/07/04 11:07:14;;;;;;;;;;;;;;;33.86;19.90;101110.56;4421455;32;20118;-69
2022/07/04 11:09:39;;;;;;;;;;;;;;;34.02;19.47;101111.28;4417405;32;21173;-69
2022/07/04 11:12:06;;;;;;;;;;;;;;;33.51;19.77;101111.75;4416623;32;20005;-69
2022/07/04 11:14:39;;;;;;;;;;;;;;;33.25;19.91;101115.13;4411337;32;20355;-69
2022/07/04 11:17:06;;;;;;;;;;;;;;;34.60;18.69;101115.69;4417549;32;20004;-69
2022/07/04 11:19:31;;;;;;;;;;;;;;;34.85;18.42;101107.63;4417890;32;19997;-69
2022/07/04 11:21:57;;;;;;;;;;;;;;;34.79;18.46;101104.97;4418484;32;20732;-69
2022/07/04 11:24:24;;;;;;;;;;;;;;;34.48;18.92;101100.00;4415546;32;20350;-69
2022/07/04 11:26:49;;;;;;;;;;;;;;;34.75;18.71;101121.37;4417789;32;19989;-69
2022/07/04 11:29:15;;;;;;;;;;;;;;;35.71;17.87;101121.59;4414502;32;20228;-69
2022/07/04 11:31:42;;;;;;;;;;;;;;;35.81;17.70;101107.84;4417157;32;20016;-69
2022/07/04 11:34:08;;;;;;;;;;;;;;;35.68;17.68;101113.28;4415763;32;20006;-69
2022/07/04 11:36:34;;;;;;;;;;;;;;;36.46;17.07;101121.84;4414670;32;19980;-69
2022/07/04 11:39:02;;;;;;;;;;;;;;;35.82;17.24;101114.44;4420646;32;19962;-69
2022/07/04 11:47:03;;;;;;;;;;;;;;;33.82;19.41;101127.72;4418670;32;20122;-68
2022/07/04 11:49:28;;;;;;;;;;;;;;;31.61;21.43;101134.91;4420401;32;19973;-68
2022/07/04 11:51:55;;;;;;;;;;;;;;;31.92;21.43;101133.66;4419192;32;20347;-68
2022/07/04 11:54:21;;;;;;;;;;;;;;;31.83;21.59;101134.22;4391447;32;20306;-68
2022/07/04 11:56:47;;;;;;;;;;;;;;;31.66;21.81;101128.13;4414744;32;20024;-69
2022/07/04 11:59:15;;;;;;;;;;;;;;;31.27;22.58;101143.09;4417985;32;20012;-69
2022/07/04 12:01:42;;;;;;;;;;;;;;;31.36;22.77;101153.44;4416982;32;20500;-68
2022/07/04 12:04:12;;;;;;;;;;;;;;;31.79;22.50;101154.19;4414902;32;20435;-68
2022/07/04 12:06:38;;;;;;;;;;;;;;;32.59;21.79;101162.13;4418883;32;20021;-69
2022/07/04 12:09:03;;;;;;;;;;;;;;;32.25;22.07;101152.94;4417039;32;19958;-71
2022/07/04 12:11:49;;;;;;;;;;;;;;;32.18;22.19;101139.13;4413268;32;20387;-71
2022/07/04 12:14:15;;;;;;;;;;;;;;;32.89;21.44;101143.06;4415091;32;20426;-69
2022/07/04 12:16:40;;;;;;;;;;;;;;;33.10;21.23;101144.34;4408318;32;20032;-69
2022/07/04 12:19:09;;;;;;;;;;;;;;;33.82;20.57;101153.22;4405838;32;20356;-69
2022/07/04 12:21:34;;;;;;;;;;;;;;;33.30;20.63;101163.75;4407393;32;20186;-69
2022/07/04 12:24:02;;;;;;;;;;;;;;;32.62;20.99;101154.31;4405832;32;20327;-68
2022/07/04 12:26:28;;;;;;;;;;;;;;;32.08;21.61;101155.63;4405283;32;19993;-68
2022/07/04 12:28:53;;;;;;;;;;;;;;;32.81;21.10;101156.81;4409961;32;20523;-70
2022/07/04 12:31:19;;;;;;;;;;;;;;;33.14;20.90;101155.63;4408707;32;19986;-67
2022/07/04 12:33:59;;;;;;;;;;;;;;;33.50;20.57;101162.72;4408014;32;20000;-69
2022/07/04 12:36:25;;;;;;;;;;;;;;;32.44;21.84;101144.63;4406134;32;20023;-67
2022/07/04 12:38:51;;;;;;;;;;;;;;;32.68;21.74;101158.59;4403368;32;20001;-67
2022/07/04 12:41:18;;;;;;;;;;;;;;;30.77;23.92;101150.34;4409216;32;20350;-67
2022/07/04 12:43:50;;;;;;;;;;;;;;;31.75;22.68;101165.41;4390303;32;20024;-67
2022/07/04 12:46:32;;;;;;;;;;;;;;;30.74;23.43;101173.97;4408808;32;20379;-69
2022/07/04 12:48:58;;;;;;;;;;;;;;;30.78;23.94;101168.56;4406629;32;20941;-67
2022/07/04 12:51:25;;;;;;;;;;;;;;;31.36;23.29;101171.66;4408698;32;20025;-68
2022/07/04 12:53:51;;;;;;;;;;;;;;;31.76;22.95;101161.16;4405144;32;20560;-68
2022/07/04 12:56:33;;;;;;;;;;;;;;;32.00;22.71;101166.47;4406656;32;20543;-68
2022/07/04 12:59:00;;;;;;;;;;;;;;;32.61;22.32;101161.53;4402948;32;19957;-68
2022/07/04 13:01:26;;;;;;;;;;;;;;;32.77;21.74;101163.06;4405683;32;20594;-68
2022/07/04 13:03:52;;;;;;;;;;;;;;;33.36;21.25;101146.81;4403782;32;20127;-68
2022/07/04 13:06:17;;;;;;;;;;;;;;;33.42;21.35;101153.22;4402249;32;20942;-68